Time;durP1;ratioP1;P1;durP2;ratioP2;P2;SDS_P1;SDS_P2;PMS_P1;PMS_P2;Temp;Humidity;BMP_temperature;BMP_pressure;BME280_temperature;BME280_humidity;BME280_pressure;Samples;Min_cycle;Max_cycle;Signal;HPM_P1;HPM_P2
2023/05/28 00:01:40;;;;;;;6.47;2.08;;;;;;;23.06;27.85;99207.06;5031532;28;20041;-64
2023/05/28 00:04:06;;;;;;;5.47;2.13;;;;;;;23.09;27.35;99204.66;5037118;28;20053;-64
2023/05/28 00:06:33;;;;;;;6.63;2.13;;;;;;;23.20;27.50;99194.81;5052452;28;20291;-64
2023/05/28 00:08:59;;;;;;;5.88;2.10;;;;;;;23.00;27.72;99199.94;5053093;28;20052;-64
2023/05/28 00:11:25;;;;;;;6.85;2.25;;;;;;;22.99;27.76;99206.41;5052970;28;20049;-64
2023/05/28 00:13:51;;;;;;;7.97;1.77;;;;;;;22.95;27.80;99203.41;5051965;28;20053;-65
2023/05/28 00:16:18;;;;;;;5.13;1.90;;;;;;;22.94;27.75;99199.03;5035405;28;20041;-64
2023/05/28 00:18:44;;;;;;;4.70;1.90;;;;;;;22.98;27.83;99202.06;5051859;28;20114;-65
2023/05/28 00:21:11;;;;;;;3.13;1.55;;;;;;;23.09;28.14;99199.25;5052217;28;20041;-64
2023/05/28 00:23:38;;;;;;;3.42;1.67;;;;;;;22.91;28.22;99191.41;5051818;28;20048;-64
2023/05/28 00:26:05;;;;;;;7.72;2.30;;;;;;;23.20;27.77;99186.69;5052040;28;20542;-64
2023/05/28 00:28:31;;;;;;;5.70;1.90;;;;;;;22.94;27.93;99198.22;5052642;28;20068;-64
2023/05/28 00:30:56;;;;;;;6.90;1.83;;;;;;;22.92;28.38;99192.22;5035430;28;20095;-64
2023/05/28 00:33:23;;;;;;;5.00;1.90;;;;;;;22.94;28.26;99193.63;5035094;28;20049;-64
2023/05/28 00:35:54;;;;;;;2.80;1.55;;;;;;;22.94;28.34;99193.63;5051106;28;20044;-64
2023/05/28 00:38:20;;;;;;;8.88;1.80;;;;;;;22.91;28.16;99201.44;5035163;28;20056;-64
2023/05/28 00:40:46;;;;;;;8.20;1.88;;;;;;;22.96;28.05;99198.78;5051400;28;20045;-64
2023/05/28 00:43:12;;;;;;;4.07;1.83;;;;;;;22.93;28.45;99205.53;5051393;28;20460;-64
2023/05/28 00:45:38;;;;;;;6.93;1.60;;;;;;;22.92;28.19;99195.78;5034474;28;20037;-64
2023/05/28 00:48:05;;;;;;;3.45;1.80;;;;;;;22.84;28.50;99189.94;5001722;28;20548;-64
2023/05/28 00:50:31;;;;;;;6.75;2.10;;;;;;;22.88;28.28;99208.16;5034776;28;20072;-64
2023/05/28 00:52:57;;;;;;;3.50;1.70;;;;;;;22.78;28.73;99196.34;5051144;28;20071;-64
2023/05/28 00:55:23;;;;;;;3.03;1.52;;;;;;;22.78;28.63;99191.75;5033800;28;20084;-64
2023/05/28 00:57:54;;;;;;;9.50;1.90;;;;;;;22.76;28.53;99191.19;5033638;28;20053;-64
2023/05/28 01:00:20;;;;;;;10.43;2.00;;;;;;;22.62;28.61;99197.97;5032925;28;20159;-64
2023/05/28 01:02:46;;;;;;;4.90;1.73;;;;;;;22.54;29.05;99189.47;5033226;28;20339;-64
2023/05/28 01:05:14;;;;;;;4.50;1.67;;;;;;;22.75;28.85;99202.25;5050025;28;20463;-64
2023/05/28 01:07:41;;;;;;;2.60;1.35;;;;;;;22.60;29.06;99202.81;5033287;28;20041;-64
2023/05/28 01:10:07;;;;;;;3.67;1.73;;;;;;;22.63;29.27;99204.22;5016815;28;20045;-64
2023/05/28 01:12:36;;;;;;;8.43;1.70;;;;;;;22.61;29.00;99190.94;5017919;28;20053;-64
2023/05/28 01:15:02;;;;;;;4.78;1.33;;;;;;;22.60;29.08;99205.53;5018263;28;20604;-64
2023/05/28 01:17:31;;;;;;;5.53;1.70;;;;;;;22.58;29.02;99196.03;5051630;28;20045;-64
2023/05/28 01:20:10;;;;;;;8.45;1.45;;;;;;;22.55;29.34;99210.88;5017287;28;20471;-64
2023/05/28 01:22:45;;;;;;;4.40;1.35;;;;;;;22.93;28.79;99205.53;5033272;28;20044;-64
2023/05/28 01:25:12;;;;;;;7.55;1.58;;;;;;;22.63;29.12;99193.41;5000743;28;20072;-64
2023/05/28 01:27:42;;;;;;;6.60;1.60;;;;;;;22.90;29.29;99207.91;5051781;28;20483;-64
2023/05/28 01:30:14;;;;;;;4.93;1.40;;;;;;;22.70;28.97;99205.69;5050869;28;20040;-65
2023/05/28 01:32:41;;;;;;;5.00;1.55;;;;;;;22.63;29.27;99209.66;5050495;28;20040;-64
2023/05/28 01:35:08;;;;;;;6.47;1.63;;;;;;;22.77;29.13;99203.63;5051538;28;20348;-64
2023/05/28 01:37:40;;;;;;;4.90;1.50;;;;;;;22.92;29.23;99198.47;5034309;28;20492;-64
2023/05/28 01:40:07;;;;;;;3.38;1.80;;;;;;;22.82;29.06;99214.56;5034042;28;20044;-64
2023/05/28 01:42:34;;;;;;;5.72;1.80;;;;;;;22.61;29.57;99203.66;5013175;28;20072;-65
2023/05/28 01:45:02;;;;;;;4.90;1.52;;;;;;;22.60;29.73;99204.72;4997070;28;20163;-64
2023/05/28 01:47:33;;;;;;;9.07;1.42;;;;;;;22.48;29.58;99212.06;4997710;28;20415;-64
2023/05/28 01:49:59;;;;;;;10.90;1.60;;;;;;;22.41;29.70;99217.63;5013422;28;20195;-69
2023/05/28 01:52:25;;;;;;;4.80;1.95;;;;;;;22.32;29.59;99205.56;5033822;28;20586;-64
2023/05/28 01:54:51;;;;;;;5.70;1.67;;;;;;;22.39;29.73;99211.63;5033456;28;20174;-64
2023/05/28 01:57:17;;;;;;;5.82;1.70;;;;;;;22.41;29.73;99212.22;5017181;28;20054;-64
2023/05/28 01:59:43;;;;;;;4.03;1.60;;;;;;;22.27;29.63;99199.22;5033373;28;20475;-64
2023/05/28 02:02:10;;;;;;;2.58;1.50;;;;;;;22.48;29.93;99218.28;5000809;28;20049;-64
2023/05/28 02:04:37;;;;;;;3.88;1.40;;;;;;;22.38;29.55;99204.59;4984694;28;20037;-64
2023/05/28 02:07:04;;;;;;;8.20;1.60;;;;;;;22.44;29.82;99216.31;5033152;28;20041;-65
2023/05/28 02:09:30;;;;;;;6.43;1.70;;;;;;;22.29;29.91;99203.34;5033383;28;20529;-64
2023/05/28 02:11:58;;;;;;;4.10;1.63;;;;;;;22.29;29.83;99216.03;5017345;28;20179;-64
2023/05/28 02:14:26;;;;;;;10.55;1.58;;;;;;;22.10;30.00;99220.00;5054674;28;20053;-65
2023/05/28 02:16:53;;;;;;;6.22;1.80;;;;;;;22.19;30.17;99219.38;5058064;28;20478;-67
2023/05/28 02:19:20;;;;;;;7.57;1.73;;;;;;;22.27;30.10;99223.56;5024990;28;20120;-64
2023/05/28 02:21:46;;;;;;;2.50;1.50;;;;;;;22.25;30.21;99223.81;5036938;28;20107;-65
2023/05/28 02:24:12;;;;;;;2.85;1.50;;;;;;;22.25;30.06;99220.31;5018529;28;20489;-64
2023/05/28 02:26:37;;;;;;;3.20;1.33;;;;;;;22.25;30.12;99225.72;5036631;28;20107;-64
2023/05/28 02:29:05;;;;;;;3.13;1.50;;;;;;;22.10;30.45;99230.84;4988371;28;20052;-64
2023/05/28 02:31:31;;;;;;;6.78;1.55;;;;;;;22.25;30.39;99229.22;5020946;28;20045;-63
2023/05/28 02:33:57;;;;;;;2.75;1.73;;;;;;;22.16;30.36;99229.84;5037008;28;20136;-64
2023/05/28 02:36:24;;;;;;;4.63;1.40;;;;;;;22.20;30.04;99218.34;5034884;28;20041;-64
2023/05/28 02:38:51;;;;;;;5.03;1.73;;;;;;;22.19;30.33;99222.09;5018045;28;20485;-64
2023/05/28 02:41:17;;;;;;;8.18;1.42;;;;;;;22.12;30.38;99234.13;5034217;28;20049;-64
2023/05/28 02:43:47;;;;;;;7.35;1.75;;;;;;;22.16;30.08;99229.84;5018166;28;20072;-64
2023/05/28 02:46:13;;;;;;;2.35;1.30;;;;;;;22.13;30.28;99235.75;5017205;28;20382;-64
2023/05/28 02:48:39;;;;;;;1.90;1.48;;;;;;;22.12;30.24;99234.94;5001116;28;20037;-64
2023/05/28 02:51:06;;;;;;;4.78;1.63;;;;;;;22.18;30.26;99238.56;5033854;28;20053;-65
2023/05/28 02:53:49;;;;;;;4.75;1.40;;;;;;;22.19;30.36;99238.31;5019518;28;20064;-64
2023/05/28 02:56:16;;;;;;;4.72;1.65;;;;;;;22.25;30.20;99244.66;5033835;28;20045;-64
2023/05/28 02:58:45;;;;;;;3.33;1.60;;;;;;;22.20;30.76;99242.69;5017928;28;20037;-65
2023/05/28 03:01:12;;;;;;;6.50;1.52;;;;;;;22.13;30.65;99233.06;5017257;28;20210;-65
2023/05/28 03:03:37;;;;;;;7.57;1.70;;;;;;;22.17;30.55;99232.31;5033925;28;20136;-65
2023/05/28 03:06:03;;;;;;;1.55;1.30;;;;;;;22.17;30.57;99240.44;5034033;28;20668;-66
2023/05/28 03:08:35;;;;;;;3.55;1.50;;;;;;;22.10;30.48;99237.06;5016531;28;20048;-65
2023/05/28 03:11:01;;;;;;;6.03;1.50;;;;;;;21.99;30.55;99237.94;5017235;28;20045;-65
2023/05/28 03:13:27;;;;;;;4.05;1.45;;;;;;;21.95;30.62;99235.94;5033112;28;20061;-65
2023/05/28 03:15:53;;;;;;;3.40;1.60;;;;;;;21.77;31.01;99236.13;5015778;28;20052;-65
2023/05/28 03:18:20;;;;;;;4.15;1.40;;;;;;;21.80;31.08;99241.06;5016414;28;20514;-65
2023/05/28 03:20:47;;;;;;;3.50;1.50;;;;;;;21.81;31.20;99226.47;5033097;28;20102;-70
2023/05/28 03:23:14;;;;;;;4.57;1.30;;;;;;;21.83;31.26;99236.00;5034112;28;20080;-65
2023/05/28 03:26:02;;;;;;;3.35;1.65;;;;;;;21.90;31.30;99241.25;5019332;28;20049;-65
2023/05/28 03:28:30;;;;;;;3.05;1.40;;;;;;;21.95;31.25;99239.50;5033115;28;20111;-64
2023/05/28 03:31:30;;;;;;;3.13;1.50;;;;;;;22.34;30.91;99246.72;5015706;28;20091;-65
2023/05/28 03:33:59;;;;;;;6.25;1.60;;;;;;;22.23;30.82;99247.63;5032816;28;20103;-65
2023/05/28 03:36:26;;;;;;;7.30;1.70;;;;;;;22.42;30.76;99251.75;5033563;28;20128;-65
2023/05/28 03:38:52;;;;;;;4.75;1.40;;;;;;;22.53;30.17;99241.94;5049004;28;20128;-65
2023/05/28 03:41:18;;;;;;;2.97;1.50;;;;;;;22.68;30.15;99239.50;5032591;28;20052;-64
2023/05/28 03:43:44;;;;;;;3.20;1.13;;;;;;;22.81;30.10;99237.28;5016106;28;20471;-64
2023/05/28 03:46:10;;;;;;;5.95;1.30;;;;;;;22.78;30.05;99254.03;5032373;28;20148;-65
2023/05/28 03:48:37;;;;;;;3.83;1.35;;;;;;;22.77;30.02;99251.56;5033046;28;20084;-64
2023/05/28 03:51:04;;;;;;;4.53;1.35;;;;;;;22.96;29.94;99242.13;5016140;28;20045;-64
2023/05/28 03:53:32;;;;;;;7.35;1.38;;;;;;;22.96;29.59;99250.25;5016108;28;20383;-64
2023/05/28 03:55:58;;;;;;;4.45;1.50;;;;;;;22.79;29.83;99242.13;4999404;28;20053;-64
2023/05/28 03:58:26;;;;;;;4.07;1.30;;;;;;;22.90;29.69;99240.41;5000022;28;20052;-63
2023/05/28 04:00:52;;;;;;;3.75;1.50;;;;;;;23.01;29.79;99237.63;5015685;28;20038;-65
2023/05/28 04:03:20;;;;;;;5.60;1.58;;;;;;;23.09;29.51;99248.00;5015892;28;20077;-65
2023/05/28 04:05:46;;;;;;;5.68;1.20;;;;;;;23.13;29.68;99257.31;5016034;28;20496;-65
2023/05/28 04:08:13;;;;;;;9.18;1.67;;;;;;;23.10;29.93;99255.09;5032304;28;20464;-64
2023/05/28 04:10:41;;;;;;;4.22;1.40;;;;;;;23.14;29.71;99258.94;5018531;28;20045;-64
2023/05/28 04:13:07;;;;;;;3.20;1.27;;;;;;;23.14;29.62;99256.22;5036018;28;20095;-64
2023/05/28 04:15:34;;;;;;;2.75;1.60;;;;;;;23.08;29.69;99264.50;5035159;28;20041;-64
2023/05/28 04:18:01;;;;;;;11.35;1.80;;;;;;;23.13;29.69;99270.03;5033802;28;20082;-65
2023/05/28 04:20:27;;;;;;;3.45;1.48;;;;;;;23.31;29.65;99268.97;5050139;28;20067;-65
2023/05/28 04:22:53;;;;;;;3.80;1.70;;;;;;;23.25;29.43;99263.47;5000547;28;20090;-65
2023/05/28 04:25:20;;;;;;;3.33;1.85;;;;;;;23.37;29.80;99266.09;5002388;28;20041;-65
2023/05/28 04:27:47;;;;;;;2.90;1.70;;;;;;;23.48;29.50;99259.72;5051737;28;20144;-65
2023/05/28 04:30:13;;;;;;;9.95;1.70;;;;;;;23.46;29.79;99253.75;5052118;28;20055;-64
2023/05/28 04:32:39;;;;;;;8.07;1.63;;;;;;;23.52;29.32;99254.63;5037287;28;20135;-64
2023/05/28 04:35:08;;;;;;;2.17;1.40;;;;;;;23.74;29.24;99261.69;5038115;28;20044;-64
2023/05/28 04:37:36;;;;;;;3.42;1.40;;;;;;;23.74;29.30;99263.63;5037134;28;20423;-64
2023/05/28 04:40:05;;;;;;;5.22;1.80;;;;;;;23.95;29.28;99273.63;5053548;28;20102;-64
2023/05/28 04:42:31;;;;;;;8.82;1.63;;;;;;;23.93;28.88;99278.47;5053275;28;20056;-64
2023/05/28 04:44:58;;;;;;;4.20;1.48;;;;;;;24.02;28.50;99268.84;5034731;28;20045;-64
2023/05/28 04:47:24;;;;;;;6.25;2.03;;;;;;;24.08;28.21;99262.44;5051272;28;20064;-64
2023/05/28 04:49:51;;;;;;;4.38;1.92;;;;;;;24.29;28.35;99283.31;5018033;28;20041;-64
2023/05/28 04:52:17;;;;;;;3.33;1.48;;;;;;;24.21;28.33;99281.03;5052196;28;20098;-64
2023/05/28 04:54:46;;;;;;;12.52;1.95;;;;;;;24.59;28.21;99280.88;5018157;28;20041;-65
2023/05/28 04:57:12;;;;;;;4.88;1.88;;;;;;;24.39;28.09;99281.50;5034552;28;20478;-64
2023/05/28 04:59:39;;;;;;;5.03;1.80;;;;;;;24.44;28.22;99273.44;5051715;28;20048;-64
2023/05/28 05:02:05;;;;;;;3.55;1.63;;;;;;;24.50;28.18;99269.69;5052323;28;20132;-64
2023/05/28 05:04:31;;;;;;;6.30;1.95;;;;;;;24.49;27.88;99275.38;5051283;28;20187;-65
2023/05/28 05:06:58;;;;;;;6.18;1.85;;;;;;;24.62;27.95;99283.09;5051418;28;20036;-64
2023/05/28 05:09:24;;;;;;;7.00;1.65;;;;;;;24.62;27.90;99280.38;5018020;28;20368;-64
2023/05/28 05:11:50;;;;;;;2.75;1.60;;;;;;;24.64;27.57;99280.94;5050544;28;20060;-64
2023/05/28 05:14:16;;;;;;;4.20;2.05;;;;;;;24.69;27.78;99281.81;5017764;28;20096;-64
2023/05/28 05:16:42;;;;;;;3.45;1.63;;;;;;;24.76;27.69;99285.16;5051834;28;20052;-65
2023/05/28 05:19:08;;;;;;;3.72;1.90;;;;;;;24.96;27.57;99289.94;5001625;28;20049;-65
2023/05/28 05:21:33;;;;;;;12.65;1.90;;;;;;;25.24;26.98;99284.19;5050776;28;20044;-65
2023/05/28 05:23:59;;;;;;;4.97;2.03;;;;;;;25.50;26.90;99286.03;5050510;28;20053;-65
2023/05/28 05:26:25;;;;;;;6.13;2.08;;;;;;;25.65;26.63;99288.84;5016900;28;20049;-65
2023/05/28 05:28:51;;;;;;;6.95;1.95;;;;;;;25.87;26.34;99278.63;5050826;28;20051;-64
2023/05/28 05:31:18;;;;;;;12.57;2.30;;;;;;;26.14;25.90;99290.19;5050676;28;20067;-64
2023/05/28 05:33:43;;;;;;;3.28;2.00;;;;;;;26.31;25.58;99279.06;5017483;28;20041;-64
2023/05/28 05:36:28;;;;;;;6.60;2.20;;;;;;;26.74;25.06;99294.97;5036554;28;20136;-65
2023/05/28 05:39:14;;;;;;;6.82;1.90;;;;;;;26.76;25.01;99292.81;5036010;28;20505;-65
2023/05/28 05:42:01;;;;;;;3.65;2.17;;;;;;;27.04;24.56;99294.19;5027818;28;20088;-64
2023/05/28 05:44:31;;;;;;;7.57;2.25;;;;;;;27.22;24.09;99299.06;5034667;28;20057;-64
2023/05/28 05:46:58;;;;;;;7.05;2.03;;;;;;;27.28;24.34;99303.47;5034306;28;20037;-64
2023/05/28 05:49:25;;;;;;;5.60;2.30;;;;;;;27.15;24.43;99301.28;5033969;28;20051;-65
2023/05/28 05:51:53;;;;;;;7.20;2.60;;;;;;;27.17;24.47;99294.44;5034175;28;20041;-64
2023/05/28 05:54:19;;;;;;;5.50;1.98;;;;;;;26.90;24.62;99298.53;5017288;28;20419;-65
2023/05/28 05:56:47;;;;;;;19.63;3.88;;;;;;;26.72;24.80;99302.63;5017968;28;20136;-65
2023/05/28 05:59:14;;;;;;;3.28;2.00;;;;;;;26.59;24.98;99294.94;5017701;28;20033;-65
2023/05/28 06:01:39;;;;;;;9.15;2.65;;;;;;;26.40;25.28;99293.81;5034464;28;20056;-65
2023/05/28 06:04:07;;;;;;;6.68;2.22;;;;;;;26.42;25.34;99291.63;5033947;28;20171;-65
2023/05/28 06:06:52;;;;;;;10.48;2.70;;;;;;;26.02;25.67;99297.75;5022751;28;20040;-65
2023/05/28 06:09:36;;;;;;;7.25;2.00;;;;;;;26.03;25.87;99301.31;5051123;28;20479;-65
2023/05/28 06:12:15;;;;;;;9.10;2.40;;;;;;;25.96;25.71;99298.78;5033433;28;20037;-65
2023/05/28 06:14:42;;;;;;;5.00;2.08;;;;;;;25.57;26.39;99302.94;5050055;28;20102;-65
2023/05/28 06:17:09;;;;;;;5.70;1.98;;;;;;;25.54;26.66;99302.66;5034376;28;20045;-65
2023/05/28 06:19:35;;;;;;;3.25;2.35;;;;;;;25.60;26.22;99305.13;5036493;28;20044;-64
2023/05/28 06:22:03;;;;;;;10.93;2.53;;;;;;;25.84;25.75;99305.53;5035423;28;20052;-65
2023/05/28 06:24:29;;;;;;;4.53;2.22;;;;;;;25.85;25.88;99313.44;5049541;28;20148;-64
2023/05/28 06:26:59;;;;;;;6.90;1.90;;;;;;;25.81;25.89;99319.66;5016374;28;20045;-65
2023/05/28 06:29:26;;;;;;;9.63;2.70;;;;;;;25.77;25.83;99321.28;4996154;28;20525;-65
2023/05/28 06:31:53;;;;;;;4.53;2.03;;;;;;;25.50;25.64;99299.63;5012613;28;20379;-65
2023/05/28 06:34:20;;;;;;;4.32;2.10;;;;;;;25.59;25.89;99314.38;4979903;28;20049;-64
2023/05/28 06:36:46;;;;;;;5.50;1.90;;;;;;;25.51;25.74;99317.56;4981320;28;20144;-65
2023/05/28 06:39:12;;;;;;;2.53;2.00;;;;;;;25.44;26.11;99319.72;4999921;28;20041;-64
2023/05/28 06:41:40;;;;;;;5.25;2.00;;;;;;;25.41;26.06;99322.13;4999977;28;20053;-65
2023/05/28 06:44:14;;;;;;;4.10;1.92;;;;;;;25.07;26.35;99309.88;5000253;28;20480;-65
2023/05/28 06:46:44;;;;;;;5.70;2.20;;;;;;;25.24;26.64;99322.25;5000633;28;20049;-65
2023/05/28 06:49:13;;;;;;;3.88;1.80;;;;;;;25.62;26.33;99327.44;5000326;28;20582;-65
2023/05/28 06:51:39;;;;;;;7.13;1.75;;;;;;;25.64;26.24;99325.28;5001693;28;20120;-65
2023/05/28 06:54:06;;;;;;;6.07;2.05;;;;;;;26.20;25.25;99332.66;4984201;28;20483;-65
2023/05/28 06:56:34;;;;;;;5.25;2.10;;;;;;;26.78;24.72;99333.41;5016326;28;20061;-67
2023/05/28 06:59:32;;;;;;;5.30;1.88;;;;;;;27.51;24.00;99333.72;4953888;28;20420;-70
2023/05/28 07:02:08;;;;;;;8.10;2.00;;;;;;;27.72;23.89;99327.13;4993694;28;20056;-69
2023/05/28 07:04:43;;;;;;;8.05;2.20;;;;;;;27.92;23.55;99335.31;4961969;28;20120;-68
2023/05/28 07:07:13;;;;;;;6.75;2.40;;;;;;;28.13;23.38;99336.06;4968304;28;20150;-68
2023/05/28 07:09:40;;;;;;;4.40;2.00;;;;;;;28.20;23.25;99341.22;5008675;28;20053;-68
2023/05/28 07:12:07;;;;;;;5.18;2.05;;;;;;;28.00;23.37;99337.47;5036862;28;20052;-67
2023/05/28 07:14:36;;;;;;;5.03;2.45;;;;;;;28.16;23.64;99349.16;5004465;28;20114;-69
2023/05/28 07:17:02;;;;;;;6.47;2.17;;;;;;;28.07;23.62;99339.91;5053374;28;20049;-69
2023/05/28 07:19:30;;;;;;;4.95;2.40;;;;;;;27.87;24.01;99331.78;5053227;28;20052;-69
2023/05/28 07:21:59;;;;;;;3.80;2.03;;;;;;;27.86;23.70;99330.13;5036958;28;20048;-71
2023/05/28 07:24:26;;;;;;;12.02;2.65;;;;;;;27.85;24.03;99342.94;5036339;28;20075;-72
2023/05/28 07:26:52;;;;;;;4.90;2.30;;;;;;;28.00;24.20;99350.28;5022252;28;20064;-71
2023/05/28 07:29:21;;;;;;;9.40;2.17;;;;;;;28.18;23.60;99333.31;5054605;28;20079;-74
2023/05/28 07:31:47;;;;;;;7.88;2.08;;;;;;;28.41;23.58;99335.41;5020330;28;20048;-75
2023/05/28 07:34:14;;;;;;;6.40;2.20;;;;;;;28.75;23.16;99325.41;5016842;28;20060;-70
2023/05/28 07:36:42;;;;;;;4.45;2.15;;;;;;;29.37;22.81;99336.41;4982021;28;20173;-69
2023/05/28 07:39:13;;;;;;;5.07;2.13;;;;;;;30.79;21.42;99336.44;4979864;28;20116;-70
2023/05/28 07:41:39;;;;;;;8.43;2.20;;;;;;;32.83;19.25;99332.09;4980089;28;20140;-74
2023/05/28 07:44:11;;;;;;;6.75;2.10;;;;;;;34.97;16.77;99330.09;4974584;28;20058;-73
2023/05/28 07:46:38;;;;;;;7.85;2.33;;;;;;;36.68;15.14;99333.13;4976891;28;20113;-70
2023/05/28 07:49:11;;;;;;;7.03;2.47;;;;;;;38.51;14.37;99332.19;4959764;28;20068;-71
2023/05/28 07:51:47;;;;;;;6.97;2.22;;;;;;;40.45;13.36;99346.81;4948587;28;20050;-72
2023/05/28 07:54:19;;;;;;;5.15;1.92;;;;;;;42.54;12.12;99353.38;4962031;28;20155;-71
2023/05/28 07:56:48;;;;;;;7.15;1.90;;;;;;;44.43;11.05;99361.22;4979590;28;20057;-75
2023/05/28 07:59:22;;;;;;;11.00;2.10;;;;;;;46.30;9.59;99353.53;4981279;28;20061;-73
2023/05/28 08:01:48;;;;;;;7.05;2.10;;;;;;;47.49;8.54;99365.28;4940897;28;20484;-70
2023/05/28 08:04:14;;;;;;;10.30;1.73;;;;;;;48.28;8.18;99369.22;4977484;28;20041;-71
2023/05/28 08:06:45;;;;;;;4.50;1.80;;;;;;;47.79;7.92;99373.19;5014194;28;20041;-72
2023/05/28 08:09:17;;;;;;;8.50;1.85;;;;;;;46.41;8.76;99369.19;5051741;28;20056;-71
2023/05/28 08:11:47;;;;;;;5.25;1.55;;;;;;;44.70;9.43;99373.84;5031968;28;20067;-70
2023/05/28 08:14:15;;;;;;;8.07;1.70;;;;;;;42.81;10.38;99375.34;5050391;28;20497;-72
2023/05/28 08:16:44;;;;;;;4.80;1.95;;;;;;;41.19;11.49;99360.47;5001374;28;20490;-73
2023/05/28 08:19:24;;;;;;;7.93;1.98;;;;;;;39.17;12.85;99368.75;4992391;28;20113;-73
2023/05/28 08:21:53;;;;;;;3.63;1.60;;;;;;;37.61;13.74;99366.72;4981491;28;20463;-72
2023/05/28 08:24:23;;;;;;;5.97;2.07;;;;;;;35.94;15.36;99370.75;5018341;28;20057;-71
2023/05/28 08:26:56;;;;;;;5.38;2.30;;;;;;;34.33;16.93;99363.19;4978461;28;20389;-71
2023/05/28 08:29:23;;;;;;;5.35;2.45;;;;;;;32.72;18.50;99363.72;4933745;28;20433;-70
2023/05/28 08:31:58;;;;;;;7.38;2.45;;;;;;;31.51;20.00;99367.97;4947517;28;20046;-71
2023/05/28 08:34:36;;;;;;;9.63;2.63;;;;;;;30.64;21.08;99366.81;4973281;28;20043;-70
2023/05/28 08:37:06;;;;;;;4.75;2.45;;;;;;;30.22;22.02;99364.06;4943574;28;20050;-70
2023/05/28 08:39:43;;;;;;;5.50;2.72;;;;;;;29.48;22.69;99372.72;4953018;28;20074;-70
2023/05/28 08:42:09;;;;;;;11.02;2.67;;;;;;;28.79;24.01;99364.72;4929381;28;20059;-70
2023/05/28 08:44:37;;;;;;;5.18;2.13;;;;;;;28.36;24.18;99368.19;4941503;28;20137;-71
2023/05/28 08:47:04;;;;;;;5.22;2.08;;;;;;;27.83;24.98;99368.91;4953271;28;20073;-69
2023/05/28 08:49:46;;;;;;;3.78;2.30;;;;;;;27.22;25.25;99368.09;4939111;28;20058;-69
2023/05/28 08:52:12;;;;;;;6.22;2.17;;;;;;;26.46;26.16;99366.28;4953627;28;20448;-69
2023/05/28 08:54:42;;;;;;;2.45;1.90;;;;;;;26.01;26.20;99377.78;4961645;28;20062;-69
2023/05/28 08:57:09;;;;;;;7.03;2.17;;;;;;;25.50;27.56;99380.38;4966530;28;20049;-69
2023/05/28 08:59:45;;;;;;;5.70;2.60;;;;;;;25.22;28.35;99381.50;5040356;28;20473;-71
2023/05/28 09:02:12;;;;;;;4.78;2.70;;;;;;;24.79;28.67;99371.59;5020099;28;20049;-68
2023/05/28 09:04:40;;;;;;;8.48;2.78;;;;;;;24.57;28.18;99383.53;4980794;28;20311;-69
2023/05/28 09:07:06;;;;;;;4.45;2.33;;;;;;;24.49;28.26;99379.34;5006753;28;20450;-69
2023/05/28 09:09:40;;;;;;;4.10;2.47;;;;;;;24.40;28.15;99385.50;5014067;28;20070;-69
2023/05/28 09:12:10;;;;;;;2.47;1.70;;;;;;;24.68;27.77;99388.00;5021240;28;20049;-69
2023/05/28 09:14:42;;;;;;;5.55;2.30;;;;;;;24.43;27.69;99387.72;5010962;28;20057;-69
2023/05/28 09:17:13;;;;;;;4.03;2.10;;;;;;;24.74;28.13;99387.00;4998500;28;20403;-69
2023/05/28 09:19:52;;;;;;;3.45;2.08;;;;;;;24.92;27.95;99382.03;4998364;28;20207;-69
2023/05/28 09:22:19;;;;;;;3.13;2.00;;;;;;;24.75;27.81;99375.91;4990501;28;20045;-72
2023/05/28 09:25:06;;;;;;;5.32;2.42;;;;;;;25.11;27.80;99370.81;5011745;28;20057;-69
2023/05/28 09:27:47;;;;;;;3.77;2.10;;;;;;;25.40;27.15;99378.41;4994120;28;20041;-68
2023/05/28 09:30:13;;;;;;;2.50;1.73;;;;;;;25.42;27.13;99343.63;5027763;28;20057;-71
2023/05/28 09:32:39;;;;;;;4.50;2.38;;;;;;;26.48;26.40;99379.63;5029536;28;20876;-69
2023/05/28 09:35:07;;;;;;;2.33;2.05;;;;;;;27.91;25.01;99371.06;5016874;28;20538;-68
2023/05/28 09:37:37;;;;;;;3.60;1.92;;;;;;;29.26;22.68;99378.63;5033957;28;20133;-70
2023/05/28 09:40:08;;;;;;;2.35;1.88;;;;;;;29.92;21.66;99387.13;5033151;28;20048;-70
2023/05/28 09:42:43;;;;;;;5.13;2.30;;;;;;;30.95;20.61;99385.28;5033855;28;20041;-70
2023/05/28 09:45:12;;;;;;;3.95;2.40;;;;;;;32.44;18.95;99393.97;5050034;28;20746;-71
2023/05/28 09:47:45;;;;;;;4.07;2.40;;;;;;;34.26;17.33;99393.19;5048532;28;20041;-70
2023/05/28 09:50:11;;;;;;;3.25;2.00;;;;;;;34.60;16.41;99396.09;5051171;28;20044;-70
2023/05/28 09:52:40;;;;;;;8.15;2.20;;;;;;;34.51;16.52;99398.00;5015697;28;20467;-72
2023/05/28 09:55:08;;;;;;;4.57;2.60;;;;;;;34.22;16.85;99398.53;5034386;28;20044;-69
2023/05/28 09:57:38;;;;;;;6.18;2.63;;;;;;;34.66;16.49;99392.84;4990908;28;20148;-69
2023/05/28 10:00:14;;;;;;;5.25;2.60;;;;;;;35.04;16.36;99399.44;5029776;28;20126;-71
2023/05/28 10:03:11;;;;;;;5.10;2.45;;;;;;;36.05;15.98;99399.66;5031352;28;20041;-70
2023/05/28 10:05:40;;;;;;;4.97;2.60;;;;;;;37.22;14.89;99400.50;5017260;28;20498;-71
2023/05/28 10:08:07;;;;;;;5.43;2.45;;;;;;;39.44;12.46;99397.75;5015483;28;20036;-71
2023/05/28 10:10:34;;;;;;;6.32;2.67;;;;;;;41.55;11.77;99401.03;5048751;28;20041;-70
2023/05/28 10:13:01;;;;;;;4.80;2.10;;;;;;;43.17;10.62;99396.25;5034921;28;20064;-71
2023/05/28 10:15:28;;;;;;;3.08;2.20;;;;;;;44.29;9.88;99400.34;5018775;28;20044;-70
2023/05/28 10:17:55;;;;;;;5.40;2.85;;;;;;;45.49;8.77;99399.13;5033723;28;20478;-71
2023/05/28 10:20:23;;;;;;;7.78;2.50;;;;;;;45.16;9.21;99393.75;5001414;28;20600;-68
2023/05/28 10:22:49;;;;;;;5.40;2.40;;;;;;;44.57;8.31;99389.34;5036111;28;20468;-74
2023/05/28 10:25:18;;;;;;;3.92;2.22;;;;;;;44.59;8.43;99391.75;5054779;28;20052;-71
2023/05/28 10:27:48;;;;;;;4.70;1.92;;;;;;;44.63;8.28;99386.97;5001954;28;20045;-72
2023/05/28 10:30:35;;;;;;;6.85;2.17;;;;;;;42.95;9.17;99377.53;5033119;28;20041;-72
2023/05/28 10:33:16;;;;;;;7.53;2.28;;;;;;;43.02;8.89;99374.84;5017344;28;20047;-70
2023/05/28 10:35:57;;;;;;;5.55;2.10;;;;;;;44.08;7.93;99377.72;5019863;28;20060;-71
2023/05/28 10:38:23;;;;;;;4.10;1.88;;;;;;;45.16;7.88;99378.91;4997488;28;20045;-73
2023/05/28 10:40:51;;;;;;;3.67;1.77;;;;;;;45.76;7.11;99379.97;5051804;28;20429;-73
2023/05/28 10:43:47;;;;;;;4.65;1.70;;;;;;;46.60;6.37;99380.03;5019791;28;20065;-72
2023/05/28 10:46:20;;;;;;;5.10;1.85;;;;;;;47.07;6.48;99376.72;4936946;29;20092;-74
2023/05/28 10:49:11;;;;;;;5.20;2.30;;;;;;;47.32;6.57;99371.00;4920495;29;20208;-73
2023/05/28 10:52:03;;;;;;;3.25;1.50;;;;;;;47.16;6.03;99362.22;4966671;28;20039;-72
2023/05/28 10:54:33;;;;;;;5.53;1.90;;;;;;;47.23;6.31;99367.84;4948745;28;20052;-73
2023/05/28 10:57:20;;;;;;;2.83;2.05;;;;;;;47.44;6.17;99381.81;4952268;28;20054;-73
2023/05/28 10:59:48;;;;;;;8.73;1.98;;;;;;;47.58;5.81;99350.78;4956514;28;20074;-72
2023/05/28 11:02:26;;;;;;;2.70;1.63;;;;;;;46.18;6.33;99354.75;4959561;28;20054;-71
2023/05/28 11:04:59;;;;;;;3.15;1.50;;;;;;;45.01;7.17;99352.00;5045453;28;20435;-70
2023/05/28 11:07:39;;;;;;;5.05;2.05;;;;;;;43.96;7.64;99349.22;5035194;28;20498;-70
2023/05/28 11:10:10;;;;;;;6.50;2.47;;;;;;;42.83;8.36;99349.81;5033295;28;20049;-71
2023/05/28 11:12:41;;;;;;;6.70;2.20;;;;;;;40.85;9.52;99339.00;5001681;28;20044;-69
2023/05/28 11:15:09;;;;;;;5.63;2.03;;;;;;;39.49;9.84;99330.78;5035608;28;20048;-70
2023/05/28 11:17:58;;;;;;;5.18;1.83;;;;;;;38.46;11.38;99331.59;5051063;28;20384;-70
2023/05/28 11:20:25;;;;;;;4.95;2.03;;;;;;;37.86;11.45;99340.69;5002599;28;20561;-70
2023/05/28 11:22:54;;;;;;;6.93;2.15;;;;;;;37.53;11.54;99328.81;5034536;28;20175;-69
2023/05/28 11:25:21;;;;;;;6.38;1.90;;;;;;;37.09;11.39;99337.84;5051833;28;20065;-72
2023/05/28 11:27:50;;;;;;;5.57;2.15;;;;;;;36.96;12.09;99336.19;5035325;28;20047;-69
2023/05/28 11:30:17;;;;;;;4.10;1.80;;;;;;;36.33;12.94;99323.44;4999452;28;20151;-69
2023/05/28 11:32:45;;;;;;;5.10;2.05;;;;;;;36.10;12.96;99335.88;5019342;28;20044;-71
2023/05/28 11:35:13;;;;;;;7.68;2.40;;;;;;;35.88;13.33;99338.06;5019512;28;20048;-70
2023/05/28 11:37:41;;;;;;;3.33;2.22;;;;;;;35.60;13.58;99340.41;5035787;28;20066;-70
2023/05/28 11:40:09;;;;;;;5.18;2.00;;;;;;;35.72;13.85;99341.34;5034345;28;20448;-73
2023/05/28 11:42:38;;;;;;;6.38;1.98;;;;;;;35.37;13.39;99336.25;5018993;28;20391;-71
2023/05/28 11:45:06;;;;;;;4.97;2.10;;;;;;;34.93;14.10;99329.13;5051136;28;20037;-70